sensor_id;sensor_type;location;lat;lon;timestamp;pressure;altitude;pressure_sealevel;temperature;humidity
60055;BME280;45930;53.514;55.904;2023-10-08T00:00:39;-16431.56;;;-149.77;100.00
60055;BME280;45930;53.514;55.904;2023-10-08T00:01:43;-16431.56;;;-149.77;100.00
60055;BME280;45930;53.514;55.904;2023-10-08T00:02:44;-16431.56;;;-149.77;100.00
60055;BME280;45930;53.514;55.904;2023-10-08T00:03:46;-16182.28;;;-149.77;100.00
60055;BME280;45930;53.514;55.904;2023-10-08T00:04:52;-16431.56;;;-149.77;100.00
60055;BME280;45930;53.514;55.904;2023-10-08T00:05:53;-16431.56;;;-149.77;100.00
60055;BME280;45930;53.514;55.904;2023-10-08T00:06:54;-16431.56;;;-149.77;100.00
60055;BME280;45930;53.514;55.904;2023-10-08T00:07:55;-16431.56;;;-149.77;100.00
60055;BME280;45930;53.514;55.904;2023-10-08T00:08:56;-16431.56;;;-149.77;100.00
60055;BME280;45930;53.514;55.904;2023-10-08T00:10:09;-16680.84;;;-149.77;100.00
60055;BME280;45930;53.514;55.904;2023-10-08T00:11:10;-16431.56;;;-149.77;100.00
60055;BME280;45930;53.514;55.904;2023-10-08T00:12:11;-16680.84;;;-149.77;100.00
60055;BME280;45930;53.514;55.904;2023-10-08T00:13:14;-16431.56;;;-149.77;100.00
60055;BME280;45930;53.514;55.904;2023-10-08T00:14:18;-16680.84;;;-149.77;100.00
60055;BME280;45930;53.514;55.904;2023-10-08T00:15:22;-16680.84;;;-149.77;100.00
60055;BME280;45930;53.514;55.904;2023-10-08T00:16:26;-16680.84;;;-149.77;100.00
60055;BME280;45930;53.514;55.904;2023-10-08T00:17:29;-16680.84;;;-149.77;100.00
60055;BME280;45930;53.514;55.904;2023-10-08T00:18:32;-16431.56;;;-149.77;100.00
60055;BME280;45930;53.514;55.904;2023-10-08T00:19:34;-16680.84;;;-149.77;100.00
60055;BME280;45930;53.514;55.904;2023-10-08T00:20:37;-16680.84;;;-149.77;100.00
60055;BME280;45930;53.514;55.904;2023-10-08T00:21:56;-16680.84;;;-149.77;100.00
60055;BME280;45930;53.514;55.904;2023-10-08T00:23:05;-16680.84;;;-149.77;100.00
60055;BME280;45930;53.514;55.904;2023-10-08T00:24:08;-16680.84;;;-149.77;100.00
60055;BME280;45930;53.514;55.904;2023-10-08T00:25:09;-16930.13;;;-149.77;100.00
60055;BME280;45930;53.514;55.904;2023-10-08T00:26:12;-16930.13;;;-149.77;100.00
60055;BME280;45930;53.514;55.904;2023-10-08T00:27:13;-17179.38;;;-149.77;100.00
60055;BME280;45930;53.514;55.904;2023-10-08T00:28:18;-17179.38;;;-149.77;100.00
60055;BME280;45930;53.514;55.904;2023-10-08T00:29:19;-17179.38;;;-149.77;100.00
60055;BME280;45930;53.514;55.904;2023-10-08T00:30:22;-17179.38;;;-149.77;100.00
60055;BME280;45930;53.514;55.904;2023-10-08T00:31:23;-17179.38;;;-149.77;100.00
60055;BME280;45930;53.514;55.904;2023-10-08T00:32:30;-17179.38;;;-149.77;100.00
60055;BME280;45930;53.514;55.904;2023-10-08T00:33:32;-17179.38;;;-149.77;100.00
60055;BME280;45930;53.514;55.904;2023-10-08T00:34:33;-17179.38;;;-149.77;100.00
60055;BME280;45930;53.514;55.904;2023-10-08T00:35:40;-17179.38;;;-149.77;100.00
60055;BME280;45930;53.514;55.904;2023-10-08T00:36:46;-17179.38;;;-149.77;100.00
60055;BME280;45930;53.514;55.904;2023-10-08T00:37:48;-16930.13;;;-149.77;100.00
60055;BME280;45930;53.514;55.904;2023-10-08T00:38:50;-16930.13;;;-149.77;100.00
60055;BME280;45930;53.514;55.904;2023-10-08T00:40:00;-17179.38;;;-149.77;100.00
60055;BME280;45930;53.514;55.904;2023-10-08T00:41:05;-17179.38;;;-149.77;100.00
60055;BME280;45930;53.514;55.904;2023-10-08T00:42:07;-17179.38;;;-149.77;100.00
60055;BME280;45930;53.514;55.904;2023-10-08T00:43:09;-17179.38;;;-149.77;100.00
60055;BME280;45930;53.514;55.904;2023-10-08T00:44:13;-17179.38;;;-149.77;100.00
60055;BME280;45930;53.514;55.904;2023-10-08T00:45:24;-17180.84;;;-149.77;100.00
60055;BME280;45930;53.514;55.904;2023-10-08T00:46:25;-17180.84;;;-149.77;100.00
60055;BME280;45930;53.514;55.904;2023-10-08T00:47:36;-17179.38;;;-149.77;100.00
60055;BME280;45930;53.514;55.904;2023-10-08T00:48:44;-17180.84;;;-149.77;100.00
60055;BME280;45930;53.514;55.904;2023-10-08T00:49:45;-17180.84;;;-149.77;100.00
60055;BME280;45930;53.514;55.904;2023-10-08T00:50:46;-17180.84;;;-149.77;100.00
60055;BME280;45930;53.514;55.904;2023-10-08T00:51:53;-17180.84;;;-149.77;100.00
60055;BME280;45930;53.514;55.904;2023-10-08T00:53:14;-17180.84;;;-149.77;100.00
60055;BME280;45930;53.514;55.904;2023-10-08T00:54:22;-17179.38;;;-149.77;100.00
60055;BME280;45930;53.514;55.904;2023-10-08T00:55:25;-17179.38;;;-149.77;100.00
60055;BME280;45930;53.514;55.904;2023-10-08T00:56:30;-17179.38;;;-149.77;100.00
60055;BME280;45930;53.514;55.904;2023-10-08T00:57:47;-17179.38;;;-149.77;100.00
60055;BME280;45930;53.514;55.904;2023-10-08T00:58:51;-17179.38;;;-149.77;100.00
60055;BME280;45930;53.514;55.904;2023-10-08T00:59:52;-17179.38;;;-149.77;100.00
60055;BME280;45930;53.514;55.904;2023-10-08T01:00:54;-17179.38;;;-149.77;100.00
60055;BME280;45930;53.514;55.904;2023-10-08T01:02:01;-17179.38;;;-149.77;100.00
60055;BME280;45930;53.514;55.904;2023-10-08T01:03:07;-16930.13;;;-149.77;100.00
60055;BME280;45930;53.514;55.904;2023-10-08T01:04:19;-16680.84;;;-149.77;100.00
60055;BME280;45930;53.514;55.904;2023-10-08T01:05:24;-15683.63;;;-149.77;100.00
60055;BME280;45930;53.514;55.904;2023-10-08T01:06:37;-15683.63;;;-149.77;100.00
60055;BME280;45930;53.514;55.904;2023-10-08T01:07:41;-15683.63;;;-149.77;100.00
60055;BME280;45930;53.514;55.904;2023-10-08T01:08:49;-15683.63;;;-149.77;100.00
60055;BME280;45930;53.514;55.904;2023-10-08T01:09:54;-15932.97;;;-149.77;100.00
60055;BME280;45930;53.514;55.904;2023-10-08T01:11:19;-15683.63;;;-149.77;100.00
60055;BME280;45930;53.514;55.904;2023-10-08T01:12:23;-15683.63;;;-149.77;100.00
60055;BME280;45930;53.514;55.904;2023-10-08T01:13:30;-15932.97;;;-149.77;100.00
60055;BME280;45930;53.514;55.904;2023-10-08T01:14:36;-15932.97;;;-149.77;100.00
60055;BME280;45930;53.514;55.904;2023-10-08T01:15:37;-15932.97;;;-149.77;100.00
60055;BME280;45930;53.514;55.904;2023-10-08T01:16:38;-15932.97;;;-149.77;100.00
60055;BME280;45930;53.514;55.904;2023-10-08T01:17:42;-15932.97;;;-149.77;100.00
60055;BME280;45930;53.514;55.904;2023-10-08T01:18:58;-16182.28;;;-149.77;100.00
60055;BME280;45930;53.514;55.904;2023-10-08T01:20:00;-16182.28;;;-149.77;100.00
60055;BME280;45930;53.514;55.904;2023-10-08T01:21:20;-16431.56;;;-149.77;100.00
60055;BME280;45930;53.514;55.904;2023-10-08T01:22:47;-16431.56;;;-149.77;100.00
60055;BME280;45930;53.514;55.904;2023-10-08T01:23:49;-16680.84;;;-149.77;100.00
60055;BME280;45930;53.514;55.904;2023-10-08T01:24:50;-16930.13;;;-149.77;100.00
60055;BME280;45930;53.514;55.904;2023-10-08T01:25:52;-16930.13;;;-149.77;100.00
60055;BME280;45930;53.514;55.904;2023-10-08T01:26:58;-17179.38;;;-149.77;100.00
60055;BME280;45930;53.514;55.904;2023-10-08T01:27:59;-17179.38;;;-149.77;100.00
60055;BME280;45930;53.514;55.904;2023-10-08T01:29:10;-17180.84;;;-149.77;100.00
60055;BME280;45930;53.514;55.904;2023-10-08T01:30:19;-17180.84;;;-149.77;100.00
60055;BME280;45930;53.514;55.904;2023-10-08T01:31:20;-17180.84;;;-149.77;100.00
60055;BME280;45930;53.514;55.904;2023-10-08T01:32:21;-17180.84;;;-149.77;100.00
60055;BME280;45930;53.514;55.904;2023-10-08T01:33:23;-17180.84;;;-149.77;100.00
60055;BME280;45930;53.514;55.904;2023-10-08T01:34:28;-17180.84;;;-149.77;100.00
60055;BME280;45930;53.514;55.904;2023-10-08T01:35:36;-17180.84;;;-149.77;100.00
60055;BME280;45930;53.514;55.904;2023-10-08T01:36:37;-17180.84;;;-149.77;100.00
60055;BME280;45930;53.514;55.904;2023-10-08T01:37:38;-17180.84;;;-149.77;100.00
60055;BME280;45930;53.514;55.904;2023-10-08T01:38:41;-17180.84;;;-149.77;100.00
60055;BME280;45930;53.514;55.904;2023-10-08T01:39:43;-17180.84;;;-149.77;100.00
60055;BME280;45930;53.514;55.904;2023-10-08T01:40:44;-17180.84;;;-149.77;100.00
60055;BME280;45930;53.514;55.904;2023-10-08T01:41:51;-17180.84;;;-149.77;100.00
60055;BME280;45930;53.514;55.904;2023-10-08T01:42:52;-17180.84;;;-149.77;100.00
60055;BME280;45930;53.514;55.904;2023-10-08T01:43:53;-17180.84;;;-149.77;100.00
60055;BME280;45930;53.514;55.904;2023-10-08T01:44:54;-17180.84;;;-149.77;100.00
60055;BME280;45930;53.514;55.904;2023-10-08T01:45:56;-17180.84;;;-149.77;100.00
60055;BME280;45930;53.514;55.904;2023-10-08T01:46:57;-17180.84;;;-149.77;100.00
60055;BME280;45930;53.514;55.904;2023-10-08T01:47:58;-17180.84;;;-149.77;100.00
60055;BME280;45930;53.514;55.904;2023-10-08T01:49:00;-17180.84;;;-149.77;100.00
60055;BME280;45930;53.514;55.904;2023-10-08T01:50:04;-17180.84;;;-149.77;100.00
60055;BME280;45930;53.514;55.904;2023-10-08T01:51:08;-17180.84;;;-149.77;100.00
60055;BME280;45930;53.514;55.904;2023-10-08T01:52:13;-17180.84;;;-149.77;100.00
60055;BME280;45930;53.514;55.904;2023-10-08T01:53:23;-17180.84;;;-149.77;100.00
60055;BME280;45930;53.514;55.904;2023-10-08T01:54:24;-17180.84;;;-149.77;100.00
60055;BME280;45930;53.514;55.904;2023-10-08T01:55:26;-17180.84;;;-149.77;100.00
60055;BME280;45930;53.514;55.904;2023-10-08T01:56:27;-17180.84;;;-149.77;100.00
60055;BME280;45930;53.514;55.904;2023-10-08T01:57:28;-17180.84;;;-149.77;100.00
60055;BME280;45930;53.514;55.904;2023-10-08T01:58:29;-17180.84;;;-149.77;100.00
60055;BME280;45930;53.514;55.904;2023-10-08T01:59:31;-17180.84;;;-149.77;100.00
60055;BME280;45930;53.514;55.904;2023-10-08T02:00:33;-17180.84;;;-149.77;100.00
60055;BME280;45930;53.514;55.904;2023-10-08T02:01:34;-17180.84;;;-149.77;100.00
60055;BME280;45930;53.514;55.904;2023-10-08T02:02:36;-17180.84;;;-149.77;100.00
60055;BME280;45930;53.514;55.904;2023-10-08T02:03:37;-17180.84;;;-149.77;100.00
60055;BME280;45930;53.514;55.904;2023-10-08T02:04:38;-17180.84;;;-149.77;100.00
60055;BME280;45930;53.514;55.904;2023-10-08T02:05:40;-17180.84;;;-149.77;100.00
60055;BME280;45930;53.514;55.904;2023-10-08T02:06:42;-17180.84;;;-149.77;100.00
60055;BME280;45930;53.514;55.904;2023-10-08T02:07:43;-17180.84;;;-149.77;100.00
60055;BME280;45930;53.514;55.904;2023-10-08T02:08:44;-17180.84;;;-149.77;100.00
60055;BME280;45930;53.514;55.904;2023-10-08T02:09:45;-17180.84;;;-149.77;100.00
60055;BME280;45930;53.514;55.904;2023-10-08T02:10:47;-17180.84;;;-149.77;100.00
60055;BME280;45930;53.514;55.904;2023-10-08T02:11:49;-17180.84;;;-149.77;100.00
60055;BME280;45930;53.514;55.904;2023-10-08T02:12:53;-17180.84;;;-149.77;100.00
60055;BME280;45930;53.514;55.904;2023-10-08T02:13:54;-17180.84;;;-149.77;100.00
60055;BME280;45930;53.514;55.904;2023-10-08T02:14:55;-17180.84;;;-149.77;100.00
60055;BME280;45930;53.514;55.904;2023-10-08T02:15:57;-17180.84;;;-149.77;100.00
60055;BME280;45930;53.514;55.904;2023-10-08T02:16:58;-17180.84;;;-149.77;100.00
60055;BME280;45930;53.514;55.904;2023-10-08T02:18:07;-17180.84;;;-149.77;100.00
60055;BME280;45930;53.514;55.904;2023-10-08T02:19:07;-17180.84;;;-149.77;100.00
60055;BME280;45930;53.514;55.904;2023-10-08T02:20:11;-17180.84;;;-149.77;100.00
60055;BME280;45930;53.514;55.904;2023-10-08T02:21:13;-17180.84;;;-149.77;100.00
60055;BME280;45930;53.514;55.904;2023-10-08T02:22:14;-17180.84;;;-149.77;100.00
60055;BME280;45930;53.514;55.904;2023-10-08T02:23:15;-17180.84;;;-149.77;100.00
60055;BME280;45930;53.514;55.904;2023-10-08T02:24:16;-17180.84;;;-149.77;100.00
60055;BME280;45930;53.514;55.904;2023-10-08T02:25:17;-17180.84;;;-149.77;100.00
60055;BME280;45930;53.514;55.904;2023-10-08T02:26:20;-17180.84;;;-149.77;100.00
60055;BME280;45930;53.514;55.904;2023-10-08T02:27:20;-17180.84;;;-149.77;100.00
60055;BME280;45930;53.514;55.904;2023-10-08T02:28:21;-17180.84;;;-149.77;100.00
60055;BME280;45930;53.514;55.904;2023-10-08T02:29:27;-17180.84;;;-149.77;100.00
60055;BME280;45930;53.514;55.904;2023-10-08T02:30:28;-17180.84;;;-149.77;100.00
60055;BME280;45930;53.514;55.904;2023-10-08T02:31:28;-17180.84;;;-149.77;100.00
60055;BME280;45930;53.514;55.904;2023-10-08T02:32:29;-17180.84;;;-149.77;100.00
60055;BME280;45930;53.514;55.904;2023-10-08T02:33:30;-17180.84;;;-149.77;100.00
60055;BME280;45930;53.514;55.904;2023-10-08T02:34:31;-17180.84;;;-149.77;100.00
60055;BME280;45930;53.514;55.904;2023-10-08T02:35:31;-17180.84;;;-149.77;100.00
60055;BME280;45930;53.514;55.904;2023-10-08T02:36:32;-17180.84;;;-149.77;100.00
60055;BME280;45930;53.514;55.904;2023-10-08T02:37:33;-17180.84;;;-149.77;100.00
60055;BME280;45930;53.514;55.904;2023-10-08T02:38:36;-17180.84;;;-149.77;100.00
60055;BME280;45930;53.514;55.904;2023-10-08T02:39:38;-17179.38;;;-149.77;100.00
60055;BME280;45930;53.514;55.904;2023-10-08T02:40:41;-17179.38;;;-149.77;100.00
60055;BME280;45930;53.514;55.904;2023-10-08T02:41:46;-16930.13;;;-149.77;100.00
60055;BME280;45930;53.514;55.904;2023-10-08T02:42:48;-16930.13;;;-149.77;100.00
60055;BME280;45930;53.514;55.904;2023-10-08T02:43:49;-16930.13;;;-149.77;100.00
60055;BME280;45930;53.514;55.904;2023-10-08T02:44:50;-16930.13;;;-149.77;100.00
60055;BME280;45930;53.514;55.904;2023-10-08T02:45:51;-16680.84;;;-149.77;100.00
60055;BME280;45930;53.514;55.904;2023-10-08T02:46:53;-16431.56;;;-149.77;100.00
60055;BME280;45930;53.514;55.904;2023-10-08T02:47:55;-16182.28;;;-149.77;100.00
60055;BME280;45930;53.514;55.904;2023-10-08T02:48:56;-16182.28;;;-149.77;100.00
60055;BME280;45930;53.514;55.904;2023-10-08T02:49:58;-16182.28;;;-149.77;100.00
60055;BME280;45930;53.514;55.904;2023-10-08T02:50:59;-16182.28;;;-149.77;100.00
60055;BME280;45930;53.514;55.904;2023-10-08T02:52:14;-16182.28;;;-149.77;100.00
60055;BME280;45930;53.514;55.904;2023-10-08T02:53:16;-16182.28;;;-149.77;100.00
60055;BME280;45930;53.514;55.904;2023-10-08T02:54:22;-16431.56;;;-149.77;100.00
60055;BME280;45930;53.514;55.904;2023-10-08T02:55:33;-16182.28;;;-149.77;100.00
60055;BME280;45930;53.514;55.904;2023-10-08T02:56:36;-16431.56;;;-149.77;100.00
60055;BME280;45930;53.514;55.904;2023-10-08T02:57:39;-16182.28;;;-149.77;100.00
60055;BME280;45930;53.514;55.904;2023-10-08T02:58:44;-16182.28;;;-149.77;100.00
60055;BME280;45930;53.514;55.904;2023-10-08T02:59:45;-16182.28;;;-149.77;100.00
60055;BME280;45930;53.514;55.904;2023-10-08T03:00:47;-16182.28;;;-149.77;100.00
60055;BME280;45930;53.514;55.904;2023-10-08T03:01:49;-15932.97;;;-149.77;100.00
60055;BME280;45930;53.514;55.904;2023-10-08T03:03:00;-16182.28;;;-149.77;100.00
60055;BME280;45930;53.514;55.904;2023-10-08T03:04:02;-15932.97;;;-149.77;100.00
60055;BME280;45930;53.514;55.904;2023-10-08T03:05:10;-15932.97;;;-149.77;100.00
60055;BME280;45930;53.514;55.904;2023-10-08T03:06:13;-15932.97;;;-149.77;100.00
60055;BME280;45930;53.514;55.904;2023-10-08T03:07:15;-15683.63;;;-149.77;100.00
60055;BME280;45930;53.514;55.904;2023-10-08T03:08:22;-14935.53;;;-149.77;100.00
60055;BME280;45930;53.514;55.904;2023-10-08T03:09:23;-14935.53;;;-149.77;100.00
60055;BME280;45930;53.514;55.904;2023-10-08T03:10:26;-14935.53;;;-149.77;100.00
60055;BME280;45930;53.514;55.904;2023-10-08T03:11:33;-14935.53;;;-149.77;100.00
60055;BME280;45930;53.514;55.904;2023-10-08T03:12:36;-15184.91;;;-149.77;100.00
60055;BME280;45930;53.514;55.904;2023-10-08T03:13:37;-15184.91;;;-149.77;100.00
60055;BME280;45930;53.514;55.904;2023-10-08T03:14:39;-14935.53;;;-149.77;100.00
60055;BME280;45930;53.514;55.904;2023-10-08T03:16:01;-14935.53;;;-149.77;100.00
60055;BME280;45930;53.514;55.904;2023-10-08T03:17:02;-14935.53;;;-149.77;100.00
60055;BME280;45930;53.514;55.904;2023-10-08T03:18:08;-14935.53;;;-149.77;100.00
60055;BME280;45930;53.514;55.904;2023-10-08T03:19:10;-14436.72;;;-149.77;100.00
60055;BME280;45930;53.514;55.904;2023-10-08T03:20:11;-14436.72;;;-149.77;100.00
60055;BME280;45930;53.514;55.904;2023-10-08T03:21:31;-14686.13;;;-149.77;100.00
60055;BME280;45930;53.514;55.904;2023-10-08T03:22:38;-14436.72;;;-149.77;100.00
60055;BME280;45930;53.514;55.904;2023-10-08T03:23:40;-14436.72;;;-149.77;100.00
60055;BME280;45930;53.514;55.904;2023-10-08T03:24:47;-14686.13;;;-149.77;100.00
60055;BME280;45930;53.514;55.904;2023-10-08T03:25:53;-14686.13;;;-149.77;100.00
60055;BME280;45930;53.514;55.904;2023-10-08T03:27:09;-14686.13;;;-149.77;100.00
60055;BME280;45930;53.514;55.904;2023-10-08T03:28:20;-14686.13;;;-149.77;100.00
60055;BME280;45930;53.514;55.904;2023-10-08T03:29:25;-14686.13;;;-149.77;100.00
60055;BME280;45930;53.514;55.904;2023-10-08T03:30:31;-14935.53;;;-149.77;100.00
60055;BME280;45930;53.514;55.904;2023-10-08T03:31:31;-15184.91;;;-149.77;100.00
60055;BME280;45930;53.514;55.904;2023-10-08T03:32:53;-15683.63;;;-149.77;100.00
60055;BME280;45930;53.514;55.904;2023-10-08T03:33:56;-15683.63;;;-149.77;100.00
60055;BME280;45930;53.514;55.904;2023-10-08T03:34:58;-15683.63;;;-149.77;100.00
60055;BME280;45930;53.514;55.904;2023-10-08T03:36:07;-16182.28;;;-149.77;100.00
60055;BME280;45930;53.514;55.904;2023-10-08T03:37:34;-16431.56;;;-149.77;100.00
60055;BME280;45930;53.514;55.904;2023-10-08T03:38:41;-16431.56;;;-149.77;100.00
60055;BME280;45930;53.514;55.904;2023-10-08T03:39:47;-16431.56;;;-149.77;100.00
60055;BME280;45930;53.514;55.904;2023-10-08T03:40:51;-16182.28;;;-149.77;100.00
60055;BME280;45930;53.514;55.904;2023-10-08T03:41:57;-16431.56;;;-149.77;100.00
60055;BME280;45930;53.514;55.904;2023-10-08T03:43:08;-16680.84;;;-149.77;100.00
60055;BME280;45930;53.514;55.904;2023-10-08T03:44:20;-16680.84;;;-149.77;100.00
60055;BME280;45930;53.514;55.904;2023-10-08T03:45:21;-16930.13;;;-149.77;100.00
60055;BME280;45930;53.514;55.904;2023-10-08T03:46:41;-16930.13;;;-149.77;100.00
60055;BME280;45930;53.514;55.904;2023-10-08T03:47:43;-17179.38;;;-149.77;100.00
60055;BME280;45930;53.514;55.904;2023-10-08T03:48:47;-17179.38;;;-149.77;100.00
60055;BME280;45930;53.514;55.904;2023-10-08T03:49:57;-17179.38;;;-149.77;100.00
60055;BME280;45930;53.514;55.904;2023-10-08T03:51:06;-16930.13;;;-149.77;100.00
60055;BME280;45930;53.514;55.904;2023-10-08T03:52:07;-17179.38;;;-149.77;100.00
60055;BME280;45930;53.514;55.904;2023-10-08T03:53:08;-17179.38;;;-149.77;100.00
60055;BME280;45930;53.514;55.904;2023-10-08T03:54:12;-17179.38;;;-149.77;100.00
60055;BME280;45930;53.514;55.904;2023-10-08T03:55:15;-17179.38;;;-149.77;100.00
60055;BME280;45930;53.514;55.904;2023-10-08T03:56:19;-17179.38;;;-149.77;100.00
60055;BME280;45930;53.514;55.904;2023-10-08T03:57:20;-17179.38;;;-149.77;100.00
60055;BME280;45930;53.514;55.904;2023-10-08T03:58:29;-16930.13;;;-149.77;100.00
60055;BME280;45930;53.514;55.904;2023-10-08T03:59:31;-16930.13;;;-149.77;100.00
60055;BME280;45930;53.514;55.904;2023-10-08T04:00:32;-16680.84;;;-149.77;100.00
60055;BME280;45930;53.514;55.904;2023-10-08T04:01:33;-16680.84;;;-149.77;100.00
60055;BME280;45930;53.514;55.904;2023-10-08T04:02:35;-16930.13;;;-149.77;100.00
60055;BME280;45930;53.514;55.904;2023-10-08T04:03:46;-16930.13;;;-149.77;100.00
60055;BME280;45930;53.514;55.904;2023-10-08T04:04:53;-17179.38;;;-149.77;100.00
60055;BME280;45930;53.514;55.904;2023-10-08T04:05:58;-17179.38;;;-149.77;100.00
60055;BME280;45930;53.514;55.904;2023-10-08T04:07:18;-16930.13;;;-149.77;100.00
60055;BME280;45930;53.514;55.904;2023-10-08T04:08:38;-16930.13;;;-149.77;100.00
60055;BME280;45930;53.514;55.904;2023-10-08T04:09:57;-16930.13;;;-149.77;100.00
60055;BME280;45930;53.514;55.904;2023-10-08T04:11:10;-16680.84;;;-149.77;100.00
60055;BME280;45930;53.514;55.904;2023-10-08T04:12:32;-16680.84;;;-149.77;100.00
60055;BME280;45930;53.514;55.904;2023-10-08T04:13:36;-16680.84;;;-149.77;100.00
60055;BME280;45930;53.514;55.904;2023-10-08T04:14:46;-16930.13;;;-149.77;100.00
60055;BME280;45930;53.514;55.904;2023-10-08T04:15:48;-16930.13;;;-149.77;100.00
60055;BME280;45930;53.514;55.904;2023-10-08T04:16:49;-16930.13;;;-149.77;100.00
60055;BME280;45930;53.514;55.904;2023-10-08T04:17:53;-16930.13;;;-149.77;100.00
60055;BME280;45930;53.514;55.904;2023-10-08T04:18:57;-16680.84;;;-149.77;100.00
60055;BME280;45930;53.514;55.904;2023-10-08T04:20:07;-16182.28;;;-149.77;100.00
60055;BME280;45930;53.514;55.904;2023-10-08T04:21:28;-15932.97;;;-149.77;100.00
60055;BME280;45930;53.514;55.904;2023-10-08T04:22:29;-15683.63;;;-149.77;100.00
60055;BME280;45930;53.514;55.904;2023-10-08T04:23:30;-15434.28;;;-149.77;100.00
60055;BME280;45930;53.514;55.904;2023-10-08T04:24:31;-15184.91;;;-149.77;100.00
60055;BME280;45930;53.514;55.904;2023-10-08T04:25:35;-15184.91;;;-149.77;100.00
60055;BME280;45930;53.514;55.904;2023-10-08T04:26:36;-14686.13;;;-149.77;100.00
60055;BME280;45930;53.514;55.904;2023-10-08T04:27:39;-14436.72;;;-149.77;100.00
60055;BME280;45930;53.514;55.904;2023-10-08T04:28:40;-14686.13;;;-149.77;100.00
60055;BME280;45930;53.514;55.904;2023-10-08T04:29:41;-14935.53;;;-149.77;100.00
60055;BME280;45930;53.514;55.904;2023-10-08T04:30:43;-14935.53;;;-149.77;100.00
60055;BME280;45930;53.514;55.904;2023-10-08T04:31:48;-14935.53;;;-149.77;100.00
60055;BME280;45930;53.514;55.904;2023-10-08T04:32:55;-14686.13;;;-149.77;100.00
60055;BME280;45930;53.514;55.904;2023-10-08T04:33:56;-14686.13;;;-149.77;100.00
60055;BME280;45930;53.514;55.904;2023-10-08T04:35:01;-14686.13;;;-149.77;100.00
60055;BME280;45930;53.514;55.904;2023-10-08T04:36:08;-14935.53;;;-149.77;100.00
60055;BME280;45930;53.514;55.904;2023-10-08T04:37:09;-14935.53;;;-149.77;100.00
60055;BME280;45930;53.514;55.904;2023-10-08T04:38:13;-14935.53;;;-149.77;100.00
60055;BME280;45930;53.514;55.904;2023-10-08T04:39:17;-14686.13;;;-149.77;100.00
60055;BME280;45930;53.514;55.904;2023-10-08T04:40:22;-14436.72;;;-149.77;100.00
60055;BME280;45930;53.514;55.904;2023-10-08T04:41:24;-14686.13;;;-149.77;100.00
60055;BME280;45930;53.514;55.904;2023-10-08T04:42:28;-14935.53;;;-149.77;100.00
60055;BME280;45930;53.514;55.904;2023-10-08T04:43:29;-15184.91;;;-149.77;100.00
60055;BME280;45930;53.514;55.904;2023-10-08T04:44:33;-15184.91;;;-149.77;100.00
60055;BME280;45930;53.514;55.904;2023-10-08T04:45:37;-15184.91;;;-149.77;100.00
60055;BME280;45930;53.514;55.904;2023-10-08T04:46:38;-15184.91;;;-149.77;100.00
60055;BME280;45930;53.514;55.904;2023-10-08T04:47:40;-14935.53;;;-149.77;100.00
60055;BME280;45930;53.514;55.904;2023-10-08T04:48:42;-15184.91;;;-149.77;100.00
60055;BME280;45930;53.514;55.904;2023-10-08T04:49:44;-15683.63;;;-149.77;100.00
60055;BME280;45930;53.514;55.904;2023-10-08T04:50:50;-16182.28;;;-149.77;100.00
60055;BME280;45930;53.514;55.904;2023-10-08T04:52:03;-16431.56;;;-149.77;100.00
60055;BME280;45930;53.514;55.904;2023-10-08T04:53:32;-16680.84;;;-149.77;100.00
60055;BME280;45930;53.514;55.904;2023-10-08T04:54:37;-16930.13;;;-149.77;100.00
60055;BME280;45930;53.514;55.904;2023-10-08T04:55:40;-16930.13;;;-149.77;100.00
60055;BME280;45930;53.514;55.904;2023-10-08T04:56:48;-16930.13;;;-149.77;100.00
60055;BME280;45930;53.514;55.904;2023-10-08T04:57:49;-17179.38;;;-149.77;100.00
60055;BME280;45930;53.514;55.904;2023-10-08T04:58:53;-17179.38;;;-149.77;100.00
60055;BME280;45930;53.514;55.904;2023-10-08T04:59:53;-17179.38;;;-149.77;100.00
60055;BME280;45930;53.514;55.904;2023-10-08T05:00:58;-17179.38;;;-149.77;100.00
60055;BME280;45930;53.514;55.904;2023-10-08T05:02:17;-17179.38;;;-149.77;100.00
60055;BME280;45930;53.514;55.904;2023-10-08T05:03:27;-17179.38;;;-149.77;100.00
60055;BME280;45930;53.514;55.904;2023-10-08T05:04:44;-17179.38;;;-149.77;100.00
60055;BME280;45930;53.514;55.904;2023-10-08T05:06:04;-17180.84;;;-149.77;100.00
60055;BME280;45930;53.514;55.904;2023-10-08T05:07:24;-17180.84;;;-149.77;100.00
60055;BME280;45930;53.514;55.904;2023-10-08T05:08:58;-17180.84;;;-149.77;100.00
60055;BME280;45930;53.514;55.904;2023-10-08T05:09:59;-17180.84;;;-149.77;100.00
60055;BME280;45930;53.514;55.904;2023-10-08T05:11:09;-17180.84;;;-149.77;100.00
60055;BME280;45930;53.514;55.904;2023-10-08T05:12:25;-17180.84;;;-149.77;100.00
60055;BME280;45930;53.514;55.904;2023-10-08T05:13:35;-17180.84;;;-149.77;100.00
60055;BME280;45930;53.514;55.904;2023-10-08T05:14:45;-17180.84;;;-149.77;100.00
60055;BME280;45930;53.514;55.904;2023-10-08T05:15:56;-17180.84;;;-149.77;100.00
60055;BME280;45930;53.514;55.904;2023-10-08T05:17:20;-17180.84;;;-149.77;100.00
60055;BME280;45930;53.514;55.904;2023-10-08T05:18:20;-17180.84;;;-149.77;100.00
60055;BME280;45930;53.514;55.904;2023-10-08T05:19:40;-17180.84;;;-149.77;100.00
60055;BME280;45930;53.514;55.904;2023-10-08T05:20:41;-17180.84;;;-149.77;100.00
60055;BME280;45930;53.514;55.904;2023-10-08T05:21:59;-17180.84;;;-149.77;100.00
60055;BME280;45930;53.514;55.904;2023-10-08T05:23:19;-17180.84;;;-149.77;100.00
60055;BME280;45930;53.514;55.904;2023-10-08T05:24:23;-17180.84;;;-149.77;100.00